Time;durP1;ratioP1;P1;durP2;ratioP2;P2;SDS_P1;SDS_P2;PMS_P1;PMS_P2;Temp;Humidity;BMP_temperature;BMP_pressure;BME280_temperature;BME280_humidity;BME280_pressure;Samples;Min_cycle;Max_cycle;Signal;HPM_P1;HPM_P2
2023/12/02 00:00:33;;;;;;;20.17;15.45;;;;;;;-0.97;100.00;100976.03;4829280;29;20145;-64
2023/12/02 00:03:22;;;;;;;21.13;15.57;;;;;;;-0.99;100.00;100972.72;4848438;29;20038;-61
2023/12/02 00:06:11;;;;;;;21.38;15.65;;;;;;;-1.10;100.00;100971.38;4862305;29;20054;-60
2023/12/02 00:08:59;;;;;;;20.98;15.40;;;;;;;-1.18;100.00;100967.97;4855485;29;20049;-66
2023/12/02 00:11:50;;;;;;;22.00;16.05;;;;;;;-1.09;100.00;100978.34;4827192;29;20049;-64
2023/12/02 00:14:38;;;;;;;19.67;15.32;;;;;;;-1.13;100.00;100970.91;4843473;29;20054;-66
2023/12/02 00:17:26;;;;;;;20.15;15.07;;;;;;;-1.07;100.00;100972.81;4829267;29;20085;-66
2023/12/02 00:20:14;;;;;;;23.55;16.85;;;;;;;-1.06;100.00;100971.81;4829089;29;20093;-65
2023/12/02 00:23:02;;;;;;;22.83;15.95;;;;;;;-1.07;100.00;100965.63;4829509;29;20141;-65
2023/12/02 00:25:50;;;;;;;21.23;15.63;;;;;;;-1.11;100.00;100956.34;4825847;29;20056;-65
2023/12/02 00:28:38;;;;;;;23.00;16.67;;;;;;;-1.12;100.00;100964.56;4840799;29;20056;-66
2023/12/02 00:31:26;;;;;;;22.50;15.57;;;;;;;-1.17;100.00;100956.25;4844410;29;20056;-65
2023/12/02 00:34:14;;;;;;;24.33;15.82;;;;;;;-1.24;100.00;100958.03;4836409;29;20078;-64
2023/12/02 00:37:02;;;;;;;20.40;14.90;;;;;;;-1.33;100.00;100963.47;4826548;29;20057;-65
2023/12/02 00:39:50;;;;;;;19.38;14.18;;;;;;;-1.29;100.00;100967.44;4829798;29;20144;-66
2023/12/02 00:42:38;;;;;;;19.38;13.75;;;;;;;-1.22;100.00;100964.03;4843495;29;20058;-66
2023/12/02 00:45:26;;;;;;;22.67;16.83;;;;;;;-1.19;100.00;100960.97;4833177;29;20141;-67
2023/12/02 00:48:14;;;;;;;23.55;16.80;;;;;;;-1.10;100.00;100968.69;4838309;29;20411;-66
2023/12/02 00:51:03;;;;;;;21.75;16.27;;;;;;;-1.05;100.00;100961.97;4847788;29;20049;-65
2023/12/02 00:53:51;;;;;;;20.33;15.63;;;;;;;-1.06;100.00;100961.09;4846846;29;20050;-65
2023/12/02 00:56:39;;;;;;;23.52;17.23;;;;;;;-1.09;100.00;100954.28;4830030;29;20058;-66
2023/12/02 00:59:27;;;;;;;21.92;16.75;;;;;;;-1.04;100.00;100948.38;4826798;29;20129;-66
2023/12/02 01:02:15;;;;;;;23.25;16.63;;;;;;;-1.02;100.00;100951.69;4826186;29;20058;-66
2023/12/02 01:05:04;;;;;;;22.85;16.63;;;;;;;-0.95;100.00;100951.78;4826258;29;20133;-65
2023/12/02 01:07:52;;;;;;;21.23;16.42;;;;;;;-1.03;100.00;100962.56;4824707;29;20546;-66
2023/12/02 01:10:40;;;;;;;20.50;15.65;;;;;;;-1.21;100.00;100960.31;4824305;29;20125;-66
2023/12/02 01:13:28;;;;;;;21.23;15.68;;;;;;;-1.29;100.00;100950.56;4823738;29;20052;-66
2023/12/02 01:16:16;;;;;;;21.90;16.02;;;;;;;-1.26;100.00;100944.00;4824533;29;20564;-66
2023/12/02 01:19:04;;;;;;;22.00;16.77;;;;;;;-1.33;100.00;100943.94;4811299;29;20054;-65
2023/12/02 01:21:52;;;;;;;20.05;15.18;;;;;;;-1.28;100.00;100941.53;4824984;29;20046;-66
2023/12/02 01:24:40;;;;;;;22.25;16.15;;;;;;;-1.26;100.00;100949.38;4824214;29;20054;-66
2023/12/02 01:27:28;;;;;;;23.50;16.50;;;;;;;-1.24;100.00;100953.50;4824938;29;20061;-67
2023/12/02 01:30:16;;;;;;;22.27;16.70;;;;;;;-1.24;100.00;100953.50;4823812;29;20058;-65
2023/12/02 01:33:04;;;;;;;22.02;16.60;;;;;;;-1.22;100.00;100961.34;4841805;29;20056;-66
2023/12/02 01:35:52;;;;;;;19.40;14.85;;;;;;;-1.24;100.00;100958.03;4842360;29;20123;-66
2023/12/02 01:38:42;;;;;;;21.02;16.55;;;;;;;-1.18;100.00;100962.59;4839443;29;20076;-66
2023/12/02 01:41:31;;;;;;;20.10;14.63;;;;;;;-1.13;100.00;100968.22;4825971;29;20415;-66
2023/12/02 01:44:19;;;;;;;19.35;14.63;;;;;;;-1.12;100.00;100975.25;4842224;29;20102;-66
2023/12/02 01:47:07;;;;;;;21.55;15.73;;;;;;;-1.18;100.00;100974.16;4840229;29;20511;-67
2023/12/02 01:49:56;;;;;;;20.88;15.48;;;;;;;-1.19;100.00;100993.03;4828000;29;20094;-65
2023/12/02 01:52:44;;;;;;;21.00;15.55;;;;;;;-1.26;100.00;100992.94;4840932;29;20518;-65
2023/12/02 01:55:32;;;;;;;20.48;15.95;;;;;;;-1.29;100.00;100993.34;4842258;29;20054;-65
2023/12/02 01:58:21;;;;;;;18.70;13.57;;;;;;;-1.32;100.00;100999.88;4811074;29;20054;-68
2023/12/02 02:01:09;;;;;;;21.52;14.85;;;;;;;-1.39;100.00;100998.97;4823914;29;20051;-67
2023/12/02 02:03:59;;;;;;;22.13;16.45;;;;;;;-1.44;100.00;100993.34;4823371;29;20137;-67
2023/12/02 02:06:47;;;;;;;19.65;14.45;;;;;;;-1.38;100.00;100987.25;4833046;29;20081;-65
2023/12/02 02:09:40;;;;;;;21.13;15.60;;;;;;;-1.33;100.00;100992.84;4823348;29;20261;-66
2023/12/02 02:12:28;;;;;;;20.30;15.65;;;;;;;-1.33;100.00;100987.50;4822043;29;20137;-65
2023/12/02 02:15:16;;;;;;;19.33;14.75;;;;;;;-1.26;100.00;100987.59;4822322;29;20105;-67
2023/12/02 02:18:04;;;;;;;20.20;14.95;;;;;;;-1.23;100.00;100987.22;4822319;29;20088;-66
2023/12/02 02:20:53;;;;;;;20.60;15.13;;;;;;;-1.21;100.00;100987.06;4838393;29;20050;-67
2023/12/02 02:23:41;;;;;;;18.15;13.52;;;;;;;-1.15;100.00;100992.50;4841197;29;20133;-66
2023/12/02 02:26:29;;;;;;;20.83;15.15;;;;;;;-1.10;100.00;100994.59;4838781;29;20057;-66
2023/12/02 02:29:17;;;;;;;20.05;15.07;;;;;;;-1.16;100.00;100984.63;4822823;29;20046;-66
2023/12/02 02:32:06;;;;;;;19.80;15.30;;;;;;;-1.22;100.00;100990.75;4810511;29;20129;-67
2023/12/02 02:34:54;;;;;;;20.35;15.10;;;;;;;-1.22;100.00;100991.56;4814037;29;20522;-66
2023/12/02 02:37:42;;;;;;;21.65;15.10;;;;;;;-1.26;100.00;100984.13;4823243;29;20199;-66
2023/12/02 02:40:30;;;;;;;20.15;15.52;;;;;;;-1.27;100.00;100991.31;4836397;29;20411;-65
2023/12/02 02:43:18;;;;;;;22.13;15.93;;;;;;;-1.22;100.00;100988.91;4837920;29;20411;-66
2023/12/02 02:46:07;;;;;;;19.98;15.40;;;;;;;-1.23;100.00;100984.56;4823678;29;20055;-66
2023/12/02 02:48:55;;;;;;;20.33;14.48;;;;;;;-1.25;100.00;100983.09;4810091;29;20552;-66
2023/12/02 02:51:43;;;;;;;19.52;14.52;;;;;;;-1.23;100.00;101005.13;4823601;29;20076;-66
2023/12/02 02:54:31;;;;;;;20.42;15.20;;;;;;;-1.29;100.00;100999.50;4830996;29;20065;-66
2023/12/02 02:57:23;;;;;;;19.45;14.55;;;;;;;-1.22;100.00;101006.78;4832891;29;20138;-66
2023/12/02 03:00:12;;;;;;;20.30;15.00;;;;;;;-1.17;100.00;101007.88;4823030;29;20050;-65
2023/12/02 03:03:00;;;;;;;21.05;15.68;;;;;;;-1.18;100.00;101005.38;4823770;29;20500;-65
2023/12/02 03:05:49;;;;;;;21.73;16.10;;;;;;;-1.21;100.00;101011.94;4830235;29;20411;-68
2023/12/02 03:08:37;;;;;;;20.50;14.68;;;;;;;-1.31;100.00;101000.69;4817538;29;20457;-65
2023/12/02 03:11:24;;;;;;;20.88;15.45;;;;;;;-1.23;100.00;101013.13;4828270;29;20149;-66
2023/12/02 03:14:14;;;;;;;18.83;14.02;;;;;;;-1.21;100.00;101006.59;4831566;29;20628;-65
2023/12/02 03:17:02;;;;;;;21.10;15.70;;;;;;;-1.14;100.00;101018.19;4819535;29;20141;-65
2023/12/02 03:19:50;;;;;;;20.13;14.95;;;;;;;-1.10;100.00;101006.13;4830752;29;20160;-65
2023/12/02 03:22:38;;;;;;;20.75;15.40;;;;;;;-1.01;100.00;101006.84;4829282;29;20163;-65
2023/12/02 03:25:26;;;;;;;21.17;15.90;;;;;;;-0.97;100.00;100997.41;4835698;29;20060;-65
2023/12/02 03:28:14;;;;;;;20.35;15.40;;;;;;;-0.91;100.00;101015.41;4827299;29;20049;-65
2023/12/02 03:31:02;;;;;;;17.88;13.48;;;;;;;-1.23;100.00;101026.50;4842218;29;20627;-65
2023/12/02 03:33:50;;;;;;;19.98;15.10;;;;;;;-1.20;100.00;101021.63;4841742;29;20068;-66
2023/12/02 03:36:39;;;;;;;19.80;15.07;;;;;;;-1.18;100.00;101032.13;4824000;29;20500;-65
2023/12/02 03:39:27;;;;;;;22.48;15.32;;;;;;;-1.25;100.00;101031.19;4823055;29;20194;-65
2023/12/02 03:42:15;;;;;;;18.95;13.90;;;;;;;-1.26;100.00;101013.50;4822489;29;20051;-65
2023/12/02 03:45:04;;;;;;;18.95;14.77;;;;;;;-1.15;100.00;101026.41;4823671;29;20050;-65
2023/12/02 03:47:52;;;;;;;19.33;14.52;;;;;;;-1.11;100.00;101017.00;4823857;29;20054;-65
2023/12/02 03:50:40;;;;;;;19.17;15.02;;;;;;;-1.09;100.00;101021.13;4828082;29;20408;-66
2023/12/02 03:53:30;;;;;;;19.20;14.45;;;;;;;-1.08;100.00;101022.00;4825185;29;20504;-66
2023/12/02 03:56:18;;;;;;;20.42;15.63;;;;;;;-1.08;100.00;101024.66;4825597;29;20050;-65
2023/12/02 03:59:07;;;;;;;19.77;14.93;;;;;;;-1.11;100.00;101030.34;4824258;29;20067;-66
2023/12/02 04:01:56;;;;;;;19.10;14.48;;;;;;;-1.11;100.00;101033.03;4825928;29;20046;-66
2023/12/02 04:04:44;;;;;;;18.15;14.07;;;;;;;-1.05;100.00;101029.63;4829178;29;20042;-66
2023/12/02 04:07:32;;;;;;;18.55;14.50;;;;;;;-1.02;100.00;101034.59;4843212;29;20046;-66
2023/12/02 04:10:20;;;;;;;19.15;14.90;;;;;;;-1.04;100.00;101033.13;4843269;29;20057;-66
2023/12/02 04:13:08;;;;;;;19.80;14.77;;;;;;;-1.00;100.00;101035.25;4844243;29;20137;-65
2023/12/02 04:15:56;;;;;;;19.00;14.48;;;;;;;-0.89;100.00;101041.94;4840647;29;20046;-64
2023/12/02 04:18:44;;;;;;;18.40;13.88;;;;;;;-0.88;100.00;101044.44;4851839;29;20050;-60
2023/12/02 04:21:33;;;;;;;19.90;14.45;;;;;;;-0.92;100.00;101037.81;4855263;29;20065;-65
2023/12/02 04:24:21;;;;;;;19.40;14.50;;;;;;;-0.89;100.00;101048.16;4827107;29;20050;-65
2023/12/02 04:27:10;;;;;;;18.65;14.45;;;;;;;-0.86;100.00;101053.13;4839789;29;20141;-65
2023/12/02 04:29:58;;;;;;;19.77;15.20;;;;;;;-0.84;100.00;101044.06;4845381;29;20431;-64
2023/12/02 04:32:46;;;;;;;19.40;14.68;;;;;;;-0.84;100.00;101058.28;4857103;29;20576;-61
2023/12/02 04:35:38;;;;;;;19.05;14.60;;;;;;;-0.80;100.00;101051.53;4852045;29;20070;-60
2023/12/02 04:38:26;;;;;;;20.60;15.25;;;;;;;-0.76;100.00;101065.38;4812772;29;20051;-65
2023/12/02 04:41:14;;;;;;;19.92;14.95;;;;;;;-0.77;100.00;101059.19;4827105;29;20068;-65
2023/12/02 04:44:01;;;;;;;19.08;14.50;;;;;;;-0.77;100.00;101061.03;4812303;29;20053;-64
2023/12/02 04:46:49;;;;;;;19.75;14.30;;;;;;;-0.75;100.00;101064.34;4825554;29;20133;-66
2023/12/02 04:49:37;;;;;;;20.52;15.52;;;;;;;-0.82;100.00;101058.91;4831684;29;20061;-66
2023/12/02 04:52:26;;;;;;;20.92;15.90;;;;;;;-0.95;100.00;101056.91;4843788;29;20058;-66
2023/12/02 04:55:14;;;;;;;21.25;16.25;;;;;;;-0.96;100.00;101054.41;4839526;29;20136;-66
2023/12/02 04:58:02;;;;;;;20.40;15.70;;;;;;;-1.00;100.00;101053.97;4843639;29;20070;-63
2023/12/02 05:00:50;;;;;;;22.05;16.10;;;;;;;-0.96;100.00;101051.72;4847284;29;20054;-65
2023/12/02 05:03:38;;;;;;;21.35;15.50;;;;;;;-0.88;100.00;101060.50;4846176;29;20053;-64
2023/12/02 05:06:26;;;;;;;17.80;13.95;;;;;;;-0.82;100.00;101058.09;4841503;29;20129;-66
2023/12/02 05:09:16;;;;;;;19.35;14.20;;;;;;;-0.79;100.00;101055.06;4843624;29;20129;-65
2023/12/02 05:12:04;;;;;;;19.77;13.77;;;;;;;-0.75;100.00;101064.34;4842826;29;20411;-65
2023/12/02 05:14:52;;;;;;;19.33;14.90;;;;;;;-0.71;100.00;101057.59;4836914;29;20058;-64
2023/12/02 05:17:40;;;;;;;18.70;14.18;;;;;;;-0.68;100.00;101062.56;4812617;29;20057;-65
2023/12/02 05:20:28;;;;;;;19.88;14.70;;;;;;;-0.67;100.00;101072.28;4817677;29;20059;-64
2023/12/02 05:23:16;;;;;;;19.27;14.30;;;;;;;-0.70;100.00;101086.00;4825140;29;20133;-65
2023/12/02 05:26:05;;;;;;;18.63;13.73;;;;;;;-0.80;100.00;101086.31;4830166;29;20057;-66
2023/12/02 05:28:53;;;;;;;19.08;14.18;;;;;;;-0.83;100.00;101099.25;4811188;29;20058;-64
2023/12/02 05:31:41;;;;;;;19.10;14.65;;;;;;;-0.86;100.00;101101.25;4823319;29;20047;-66
2023/12/02 05:34:29;;;;;;;18.20;14.02;;;;;;;-0.88;100.00;101105.97;4823839;29;20149;-65
2023/12/02 05:37:17;;;;;;;19.40;14.40;;;;;;;-0.85;100.00;101102.09;4812588;29;20064;-66
2023/12/02 05:40:05;;;;;;;19.25;14.35;;;;;;;-0.82;100.00;101103.56;4811151;29;20054;-66
2023/12/02 05:42:53;;;;;;;19.52;14.30;;;;;;;-0.79;100.00;101105.88;4827236;29;20050;-65
2023/12/02 05:45:41;;;;;;;19.67;14.77;;;;;;;-0.73;100.00;101099.78;4840295;29;20579;-65
2023/12/02 05:48:30;;;;;;;19.77;14.48;;;;;;;-0.67;100.00;101088.34;4824608;29;20093;-65
2023/12/02 05:51:18;;;;;;;18.73;14.13;;;;;;;-0.66;100.00;101095.34;4824141;29;20054;-66
2023/12/02 05:54:10;;;;;;;18.02;13.20;;;;;;;-0.62;100.00;101096.63;4823929;29;20510;-65
2023/12/02 05:56:58;;;;;;;17.92;13.48;;;;;;;-0.61;100.00;101087.56;4833006;29;20054;-64
2023/12/02 05:59:46;;;;;;;17.42;13.15;;;;;;;-0.59;100.00;101090.88;4841175;29;20418;-66
2023/12/02 06:02:34;;;;;;;16.92;13.15;;;;;;;-0.57;100.00;101098.75;4842257;29;20046;-64
2023/12/02 06:05:22;;;;;;;17.40;13.18;;;;;;;-0.57;100.00;101099.56;4842515;29;20478;-65
2023/12/02 06:08:10;;;;;;;18.27;13.80;;;;;;;-0.58;100.00;101095.22;4833118;29;20081;-67
2023/12/02 06:10:58;;;;;;;16.88;12.45;;;;;;;-0.57;100.00;101102.25;4830099;29;20075;-65
2023/12/02 06:13:46;;;;;;;16.77;12.77;;;;;;;-0.57;100.00;101104.91;4845544;29;20056;-65
2023/12/02 06:16:34;;;;;;;18.75;14.13;;;;;;;-0.57;100.00;101104.91;4846860;29;20049;-65
2023/12/02 06:19:22;;;;;;;19.40;14.18;;;;;;;-0.59;100.00;101116.81;4833996;29;20077;-66
2023/12/02 06:22:10;;;;;;;18.70;14.30;;;;;;;-0.61;100.00;101114.31;4812375;29;20424;-65
2023/12/02 06:24:58;;;;;;;19.13;14.65;;;;;;;-0.59;100.00;101119.50;4823035;29;20078;-65
2023/12/02 06:27:46;;;;;;;22.58;14.68;;;;;;;-0.59;100.00;101111.47;4822356;29;20054;-65
2023/12/02 06:30:34;;;;;;;25.48;14.80;;;;;;;-0.55;100.00;101124.28;4822524;29;20137;-65
2023/12/02 06:33:22;;;;;;;24.23;14.02;;;;;;;-0.50;100.00;101123.72;4825896;29;20566;-66
2023/12/02 06:36:11;;;;;;;20.40;14.82;;;;;;;-0.49;100.00;101123.53;4841846;29;20118;-64
2023/12/02 06:38:59;;;;;;;18.77;14.98;;;;;;;-0.51;100.00;101125.56;4824754;29;20046;-65
2023/12/02 06:41:47;;;;;;;19.85;15.30;;;;;;;-0.53;100.00;101130.28;4810656;29;20062;-65
2023/12/02 06:44:36;;;;;;;18.35;14.65;;;;;;;-0.53;100.00;101126.75;4809581;29;20584;-64
2023/12/02 06:47:24;;;;;;;19.13;14.63;;;;;;;-0.52;100.00;101134.63;4824031;29;20046;-64
2023/12/02 06:50:13;;;;;;;21.08;15.65;;;;;;;-0.52;100.00;101137.28;4833428;29;20058;-66
2023/12/02 06:53:00;;;;;;;19.60;14.88;;;;;;;-0.53;100.00;101129.44;4822429;29;20116;-66
2023/12/02 06:55:49;;;;;;;22.27;16.00;;;;;;;-0.58;100.00;101140.69;4821546;29;20515;-66
2023/12/02 06:58:37;;;;;;;21.17;15.27;;;;;;;-0.61;100.00;101149.13;4827123;29;20116;-65
2023/12/02 07:01:29;;;;;;;20.48;15.98;;;;;;;-0.63;100.00;101143.13;4825981;29;20050;-66
2023/12/02 07:04:17;;;;;;;20.17;15.20;;;;;;;-0.63;100.00;101153.81;4839967;29;20061;-66
2023/12/02 07:07:06;;;;;;;22.45;16.40;;;;;;;-0.64;100.00;101162.88;4833942;29;20058;-65
2023/12/02 07:09:57;;;;;;;19.77;15.27;;;;;;;-0.62;100.00;101160.84;4835888;29;20431;-64
2023/12/02 07:12:45;;;;;;;21.02;16.17;;;;;;;-0.59;100.00;101175.69;4819398;29;20130;-64
2023/12/02 07:15:33;;;;;;;21.48;14.52;;;;;;;-0.57;100.00;101174.50;4809942;29;20091;-64
2023/12/02 07:18:21;;;;;;;19.65;14.90;;;;;;;-0.55;100.00;101177.81;4821842;29;20068;-66
2023/12/02 07:21:10;;;;;;;19.52;14.82;;;;;;;-0.55;100.00;101172.47;4828387;29;20057;-65
2023/12/02 07:23:58;;;;;;;19.05;13.68;;;;;;;-0.54;100.00;101184.81;4825792;29;20058;-67
2023/12/02 07:26:46;;;;;;;20.50;15.52;;;;;;;-0.56;100.00;101188.69;4843365;29;20054;-66
2023/12/02 07:29:34;;;;;;;18.17;13.27;;;;;;;-0.55;100.00;101193.88;4831500;29;20050;-66
2023/12/02 07:32:26;;;;;;;20.13;14.75;;;;;;;-0.54;100.00;101195.53;4829443;29;20439;-66
2023/12/02 07:35:14;;;;;;;20.45;16.30;;;;;;;-0.53;100.00;101202.56;4819486;29;20534;-67
2023/12/02 07:38:02;;;;;;;21.85;16.60;;;;;;;-0.55;100.00;101199.22;4826915;29;20054;-67
2023/12/02 07:40:50;;;;;;;20.48;15.55;;;;;;;-0.57;100.00;101201.25;4832197;29;20049;-67
2023/12/02 07:43:38;;;;;;;23.13;17.63;;;;;;;-0.61;100.00;101205.31;4844690;29;20062;-67
2023/12/02 07:46:26;;;;;;;21.55;16.50;;;;;;;-0.61;100.00;101210.66;4818322;29;20077;-68
2023/12/02 07:49:17;;;;;;;22.10;16.77;;;;;;;-0.58;100.00;101209.47;4826521;29;20063;-67
2023/12/02 07:52:05;;;;;;;21.15;15.32;;;;;;;-0.55;100.00;101203.75;4815242;29;20053;-68
2023/12/02 07:54:53;;;;;;;21.05;16.05;;;;;;;-0.52;100.00;101212.22;4823782;29;20133;-65
2023/12/02 07:57:41;;;;;;;25.58;17.42;;;;;;;-0.46;100.00;101219.53;4826071;29;20042;-68
2023/12/02 08:00:29;;;;;;;23.00;16.42;;;;;;;-0.44;100.00;101212.13;4841607;29;20049;-66
2023/12/02 08:03:18;;;;;;;21.98;17.02;;;;;;;-0.43;100.00;101215.66;4831328;29;20522;-68
2023/12/02 08:06:10;;;;;;;21.50;16.48;;;;;;;-0.46;100.00;101222.22;4824810;29;20053;-67
2023/12/02 08:08:58;;;;;;;23.08;17.65;;;;;;;-0.47;100.00;101225.06;4826283;29;20584;-67
2023/12/02 08:11:46;;;;;;;24.00;18.23;;;;;;;-0.49;100.00;101225.22;4824456;29;20103;-67
2023/12/02 08:14:34;;;;;;;24.60;18.33;;;;;;;-0.50;100.00;101233.47;4826183;29;20080;-66
2023/12/02 08:17:22;;;;;;;24.67;18.92;;;;;;;-0.51;100.00;101232.63;4813217;29;20191;-67
2023/12/02 08:20:10;;;;;;;23.13;17.00;;;;;;;-0.47;100.00;101238.44;4825481;29;20050;-66
2023/12/02 08:22:58;;;;;;;25.05;19.00;;;;;;;-0.47;100.00;101244.63;4826041;29;20054;-66
2023/12/02 08:25:47;;;;;;;25.25;17.27;;;;;;;-0.48;100.00;101242.97;4833532;29;20057;-67
2023/12/02 08:28:35;;;;;;;25.52;18.63;;;;;;;-0.47;100.00;101254.50;4822854;29;20090;-66
2023/12/02 08:31:23;;;;;;;24.17;18.42;;;;;;;-0.49;100.00;101260.03;4826738;29;20057;-67
2023/12/02 08:34:11;;;;;;;25.05;18.55;;;;;;;-0.49;100.00;101252.00;4826938;29;20080;-65
2023/12/02 08:37:03;;;;;;;24.10;18.90;;;;;;;-0.49;100.00;101251.19;4814450;29;20535;-66
2023/12/02 08:39:51;;;;;;;35.47;19.27;;;;;;;-0.48;100.00;101253.69;4841801;29;20423;-66
2023/12/02 08:42:39;;;;;;;24.88;18.95;;;;;;;-0.46;100.00;101257.00;4844500;29;20050;-65
2023/12/02 08:45:27;;;;;;;24.20;18.65;;;;;;;-0.46;100.00;101262.38;4827799;29;20067;-66
2023/12/02 08:48:15;;;;;;;26.08;19.95;;;;;;;-0.46;100.00;101262.38;4843478;29;20066;-65
2023/12/02 08:51:03;;;;;;;27.55;19.42;;;;;;;-0.47;100.00;101262.53;4852656;29;20061;-63
2023/12/02 08:53:58;;;;;;;25.98;19.05;;;;;;;-0.48;100.00;101259.03;4848172;29;20050;-64
2023/12/02 08:56:48;;;;;;;27.45;19.55;;;;;;;-0.48;100.00;101263.53;4837702;29;20058;-65
2023/12/02 08:59:36;;;;;;;25.73;19.38;;;;;;;-0.47;100.00;101266.03;4834936;29;20158;-66
2023/12/02 09:02:25;;;;;;;26.45;19.10;;;;;;;-0.48;100.00;101275.09;4852921;29;20149;-67
2023/12/02 09:05:13;;;;;;;26.63;19.63;;;;;;;-0.50;100.00;101270.94;4838544;29;20519;-65
2023/12/02 09:08:02;;;;;;;26.65;20.17;;;;;;;-0.51;100.00;101267.41;4834272;29;20046;-64
2023/12/02 09:10:51;;;;;;;26.20;19.83;;;;;;;-0.50;100.00;101271.75;4835820;29;20050;-67
2023/12/02 09:13:46;;;;;;;26.08;19.65;;;;;;;-0.48;100.00;101275.09;4833482;29;20081;-67
2023/12/02 09:16:34;;;;;;;27.20;19.98;;;;;;;-0.44;100.00;101270.19;4496662;29;10000416;-68
2023/12/02 09:19:55;;;;;;;27.65;20.05;;;;;;;-0.38;100.00;101276.66;4818670;29;20062;-67
2023/12/02 09:22:47;;;;;;;29.00;20.83;;;;;;;-0.40;100.00;101282.19;4840727;29;20064;-66
2023/12/02 09:25:37;;;;;;;27.88;20.73;;;;;;;-0.39;100.00;101283.03;4838149;29;20057;-65
2023/12/02 09:28:29;;;;;;;26.48;20.00;;;;;;;-0.36;100.00;101282.66;4837468;29;20058;-65
2023/12/02 09:31:17;;;;;;;28.70;21.25;;;;;;;-0.38;100.00;101292.72;4839206;29;20053;-65
2023/12/02 09:34:45;;;;;;;29.25;21.67;;;;;;;-0.37;100.00;101286.34;4838942;29;20050;-66
2023/12/02 09:37:51;;;;;;;28.30;20.20;;;;;;;-0.32;100.00;101289.31;4827049;29;20058;-68
2023/12/02 09:41:02;;;;;;;27.83;20.13;;;;;;;-0.29;100.00;101291.59;4834849;29;20136;-66
2023/12/02 09:44:03;;;;;;;30.05;20.63;;;;;;;-0.26;100.00;101284.03;4839145;29;20065;-68
2023/12/02 09:47:11;;;;;;;28.35;21.83;;;;;;;-0.20;100.00;101293.19;4827883;29;20190;-67
2023/12/02 09:50:11;;;;;;;25.85;19.27;;;;;;;-0.17;100.00;101292.78;4831618;29;20442;-68
2023/12/02 09:53:13;;;;;;;28.42;19.58;;;;;;;-0.13;100.00;101301.31;4832798;29;20050;-68
2023/12/02 09:56:08;;;;;;;28.30;21.08;;;;;;;-0.09;100.00;101306.09;4818742;29;20046;-67
2023/12/02 09:59:28;;;;;;;27.13;20.63;;;;;;;-0.12;100.00;101311.00;4823946;29;20056;-67
2023/12/02 10:02:17;;;;;;;29.20;20.55;;;;;;;-0.15;100.00;101316.72;4823711;29;20067;-68
2023/12/02 10:05:13;;;;;;;28.30;20.42;;;;;;;-0.17;100.00;101319.56;4824363;29;20046;-67
2023/12/02 10:08:16;;;;;;;29.48;20.70;;;;;;;-0.15;100.00;101314.88;4822763;29;20050;-67
2023/12/02 10:11:19;;;;;;;27.30;20.70;;;;;;;-0.09;100.00;101322.19;4825205;29;20182;-68
2023/12/02 10:14:11;;;;;;;32.88;23.42;;;;;;;-0.07;100.00;101320.16;4824718;29;20058;-68
2023/12/02 10:17:02;;;;;;;28.50;21.17;;;;;;;-0.10;100.00;101319.66;4836178;29;20046;-68
2023/12/02 10:19:51;;;;;;;29.13;21.52;;;;;;;-0.11;100.00;101315.34;4841760;29;20054;-68
2023/12/02 10:22:44;;;;;;;29.65;21.83;;;;;;;-0.11;100.00;101324.19;4823648;29;20049;-67
2023/12/02 10:25:37;;;;;;;28.27;20.35;;;;;;;-0.10;100.00;101320.50;4841583;29;20050;-67
2023/12/02 10:28:38;;;;;;;30.63;23.23;;;;;;;-0.16;100.00;101315.91;4811852;29;20054;-66
2023/12/02 10:31:28;;;;;;;30.50;22.60;;;;;;;-0.24;100.00;101324.00;4829510;29;20050;-68
2023/12/02 10:34:26;;;;;;;30.95;22.42;;;;;;;-0.24;100.00;101329.34;4841816;29;20046;-67
2023/12/02 10:37:14;;;;;;;29.45;22.30;;;;;;;-0.21;100.00;101329.00;4840279;29;20659;-68
2023/12/02 10:40:08;;;;;;;30.60;22.98;;;;;;;-0.15;100.00;101317.53;4833292;29;20264;-67
2023/12/02 10:42:59;;;;;;;32.03;22.83;;;;;;;-0.06;100.00;101320.97;4812560;29;20066;-67
2023/12/02 10:45:48;;;;;;;31.10;22.48;;;;;;;-0.03;100.00;101318.75;4824808;29;20488;-67
2023/12/02 10:48:37;;;;;;;31.75;22.42;;;;;;;0.01;100.00;101315.72;4824147;29;20116;-68
2023/12/02 10:51:27;;;;;;;32.97;24.08;;;;;;;0.04;100.00;101313.47;4822850;29;20515;-68
2023/12/02 10:54:18;;;;;;;32.25;23.42;;;;;;;0.02;100.00;101312.81;4786727;29;20054;-67
2023/12/02 10:57:07;;;;;;;33.13;24.55;;;;;;;-0.02;100.00;101301.66;4824769;29;20051;-65
2023/12/02 11:00:06;;;;;;;34.90;25.95;;;;;;;-0.07;100.00;101301.41;4828306;29;20103;-65
2023/12/02 11:03:07;;;;;;;34.97;24.70;;;;;;;-0.07;100.00;101303.25;4832554;29;20057;-66
2023/12/02 11:06:05;;;;;;;32.80;23.13;;;;;;;-0.04;100.00;101301.03;4832252;29;20050;-67
2023/12/02 11:09:10;;;;;;;31.08;22.50;;;;;;;0.06;100.00;101299.91;4831082;29;20042;-66
2023/12/02 11:12:08;;;;;;;32.45;24.02;;;;;;;0.11;100.00;101300.16;4826727;29;20088;-67
2023/12/02 11:15:09;;;;;;;32.75;23.70;;;;;;;0.15;100.00;101298.78;4804074;29;20615;-67
2023/12/02 11:18:04;;;;;;;33.30;23.60;;;;;;;0.18;100.00;101298.41;4826875;29;20189;-66
2023/12/02 11:20:53;;;;;;;34.10;23.20;;;;;;;0.24;100.00;101299.50;4819693;29;20046;-67
2023/12/02 11:23:41;;;;;;;32.42;23.65;;;;;;;0.27;100.00;101296.47;4826254;29;20134;-67
2023/12/02 11:26:32;;;;;;;28.75;20.23;;;;;;;0.35;100.00;101304.38;4827863;29;20050;-67
2023/12/02 11:29:35;;;;;;;35.10;23.77;;;;;;;0.37;100.00;101313.88;4839529;29;20081;-67
2023/12/02 11:33:00;;;;;;;31.58;21.70;;;;;;;0.36;100.00;101314.91;4843873;29;20384;-67
2023/12/02 11:36:12;;;;;;;31.05;22.73;;;;;;;0.38;100.00;101310.16;4844456;29;20495;-67
2023/12/02 11:39:33;;;;;;;33.10;22.92;;;;;;;0.45;100.00;101317.47;4844392;29;20180;-68
2023/12/02 11:42:25;;;;;;;34.03;22.00;;;;;;;0.48;100.00;101314.41;4820720;29;20449;-67
2023/12/02 11:45:22;;;;;;;33.75;23.02;;;;;;;0.46;100.00;101316.44;4814876;29;20420;-69
2023/12/02 11:48:13;;;;;;;33.20;22.50;;;;;;;0.45;100.00;101317.47;4826845;29;20060;-67
2023/12/02 11:51:27;;;;;;;29.27;21.05;;;;;;;0.46;100.00;101316.44;4825549;29;20646;-67
2023/12/02 11:54:15;;;;;;;30.05;21.35;;;;;;;0.47;100.00;101315.44;4824462;29;20058;-67
2023/12/02 11:57:22;;;;;;;30.58;22.10;;;;;;;0.47;100.00;101312.75;4825358;29;20512;-67
2023/12/02 12:00:28;;;;;;;29.92;21.20;;;;;;;0.49;100.00;101311.53;4844203;29;20046;-68
2023/12/02 12:03:39;;;;;;;17.88;11.93;;;;;;;0.62;100.00;101319.72;4843372;29;20083;-67
2023/12/02 12:06:39;;;;;;;32.30;21.10;;;;;;;0.63;100.00;101312.53;4842593;29;20042;-67
2023/12/02 12:09:33;;;;;;;29.58;21.55;;;;;;;0.61;100.00;101322.59;4835085;29;20119;-68
2023/12/02 12:12:23;;;;;;;31.20;21.90;;;;;;;0.63;100.00;101328.63;4821355;29;20070;-68
2023/12/02 12:15:11;;;;;;;27.63;19.92;;;;;;;0.65;100.00;101318.53;4837295;29;20064;-66
2023/12/02 12:17:59;;;;;;;29.85;20.67;;;;;;;0.66;100.00;101322.88;4833148;29;20051;-67
2023/12/02 12:20:55;;;;;;;29.48;21.02;;;;;;;0.66;100.00;101322.03;4815196;29;20094;-69
2023/12/02 12:23:43;;;;;;;29.90;21.30;;;;;;;0.63;100.00;101320.56;4837272;29;20054;-67
2023/12/02 12:26:32;;;;;;;31.90;21.20;;;;;;;0.55;100.00;101318.00;4836750;29;20134;-66
2023/12/02 12:29:21;;;;;;;29.83;20.90;;;;;;;0.53;100.00;101320.03;4828843;29;20058;-68
2023/12/02 12:32:10;;;;;;;29.45;19.73;;;;;;;0.55;100.00;101318.00;4842029;29;20046;-68
2023/12/02 12:34:58;;;;;;;28.88;20.80;;;;;;;0.59;100.00;101324.66;4837949;29;20053;-67
2023/12/02 12:37:47;;;;;;;31.40;21.35;;;;;;;0.66;100.00;101335.44;4841389;29;20050;-67
2023/12/02 12:40:36;;;;;;;31.17;22.48;;;;;;;0.66;100.00;101328.22;4841224;29;20140;-67
2023/12/02 12:43:24;;;;;;;31.17;21.23;;;;;;;0.66;100.00;101346.19;4837776;29;20061;-68
2023/12/02 12:46:13;;;;;;;30.27;21.33;;;;;;;0.66;100.00;101341.63;4833345;29;20102;-68